Armadores I — SY8463 — position and weather

sailwx.info

Track history (hours):
 
Tides and Currents Weather Stations Pressure Air Temp Water Temp Dewpoint Dewpoint Depression Visibility Wind Speed Wind Dir Waves Ship Positions

Armadores I

Last reported at 2014-Jul-30 03:25 UTC. Time now 2014-Jul-30 07:06 UTC.
Position N 37°57' E 023°37'.

Length 32 m.

Type: Tug. MMSI: 240694000.

Date/timePositionNaut miles runAvg speedWind from/ knotsBaromVisibWave heightAir tempDewpointWater temp
2014-Jul-30 03:25N 37°57' E 023°37'0 0.0
2014-Jul-30 02:33N 37°57' E 023°37'0 0.0
2014-Jul-30 01:30N 37°57' E 023°37'0 0.0
2014-Jul-30 00:31N 37°57' E 023°37'0 0.0
2014-Jul-29 23:26N 37°57' E 023°37'0 0.0
2014-Jul-29 22:34N 37°57' E 023°37'1 0.8
2014-Jul-29 21:34N 37°57' E 023°36'1 0.7
2014-Jul-29 20:33N 37°57' E 023°37'0 0.0
2014-Jul-29 19:33N 37°57' E 023°37'0 0.0
2014-Jul-29 18:33N 37°57' E 023°37'2 1.6
2014-Jul-29 17:33N 37°56' E 023°36'1 1.0
2014-Jul-29 16:33N 37°56' E 023°37'1 1.4
2014-Jul-29 15:34N 37°57' E 023°37'0 0.0
2014-Jul-29 14:34N 37°57' E 023°37'1 1.0
2014-Jul-29 13:33N 37°57' E 023°36'1 1.0
2014-Jul-29 12:34N 37°57' E 023°37'0 0.0
2014-Jul-29 11:34N 37°57' E 023°37'0 0.0
2014-Jul-29 04:10N 37°57' E 023°37'0 0.0
2014-Jul-29 03:33N 37°57' E 023°37'0 0.0
2014-Jul-29 02:33N 37°57' E 023°37'0 0.0
2014-Jul-29 01:33N 37°57' E 023°37'0 0.0
2014-Jul-29 00:33N 37°57' E 023°37'0 0.0
2014-Jul-28 23:33N 37°57' E 023°37'0 0.0
2014-Jul-28 22:33N 37°57' E 023°37'0 0.0
2014-Jul-28 21:33N 37°57' E 023°37'0 0.1
2014-Jul-28 20:34N 37°57' E 023°36'2 1.7
2014-Jul-28 19:34N 37°56' E 023°36'1 1.2
2014-Jul-28 18:34N 37°57' E 023°35'1 1.0
2014-Jul-28 17:33N 37°57' E 023°37'0 0.0
2014-Jul-28 16:33N 37°57' E 023°37'0 0.0
2014-Jul-28 15:33N 37°57' E 023°37'1 1.3
2014-Jul-28 14:33N 37°56' E 023°37'1 1.4
2014-Jul-28 13:34N 37°57' E 023°37'0 0.0
2014-Jul-28 12:33N 37°57' E 023°37'0 0.0
2014-Jul-28 11:33N 37°57' E 023°37'0 0.0
2014-Jul-28 10:33N 37°57' E 023°37'0 0.0
2014-Jul-28 08:12N 37°57' E 023°37'3 5.2
2014-Jul-28 07:33N 37°59' E 023°33'6 5.5
2014-Jul-28 06:32N 37°58' E 023°26'1 1.5
2014-Jul-28 05:33N 37°60' E 023°26'8 7.8
2014-Jul-28 04:33N 37°57' E 023°35'1 1.1
2014-Jul-28 03:33N 37°57' E 023°37'0 0.2
2014-Jul-28 02:33N 37°57' E 023°36'1 1.4
2014-Jul-28 01:33N 37°56' E 023°37'1 1.3
2014-Jul-28 00:33N 37°57' E 023°36'0 0.0
2014-Jul-27 23:34N 37°57' E 023°36'0 0.0
2014-Jul-27 22:34N 37°57' E 023°36'0 0.0
2014-Jul-27 21:33N 37°57' E 023°36'0 0.0
2014-Jul-27 20:33N 37°57' E 023°36'0 0.0
2014-Jul-27 19:33N 37°57' E 023°36'1 0.7
2014-Jul-27 18:33N 37°57' E 023°37'0 0.0
2014-Jul-27 17:34N 37°57' E 023°37'0 0.0
2014-Jul-27 16:33N 37°57' E 023°37'1 0.9
2014-Jul-27 15:33N 37°57' E 023°36'1 0.9
2014-Jul-27 14:33N 37°57' E 023°37'0 0.1
2014-Jul-27 13:33N 37°57' E 023°37'3 3.1
2014-Jul-27 12:32N 37°58' E 023°33'3 3.0
2014-Jul-27 11:26N 38°01' E 023°31'1 0.1
2014-Jul-27 07:21N 38°01' E 023°30'6 6.3
2014-Jul-27 06:26N 37°57' E 023°24'1 1.6
2014-Jul-27 05:33N 37°57' E 023°23'6 5.1
2014-Jul-27 04:19N 37°52' E 023°27'7 9.0
2014-Jul-27 03:33N 37°56' E 023°35'2 0.7
2014-Jul-27 00:33N 37°57' E 023°37'0 0.0
2014-Jul-26 23:33N 37°57' E 023°37'0 0.0
2014-Jul-26 22:33N 37°57' E 023°37'0 0.0
2014-Jul-26 21:33N 37°57' E 023°37'1 0.7
2014-Jul-26 20:34N 37°57' E 023°36'1 0.9
2014-Jul-26 19:33N 37°56' E 023°36'1 1.3
2014-Jul-26 18:33N 37°57' E 023°37'0 0.0
2014-Jul-26 17:33N 37°57' E 023°37'0 0.0
2014-Jul-26 16:34N 37°57' E 023°37'0 0.1
2014-Jul-26 15:34N 37°58' E 023°37'2 1.7
2014-Jul-26 14:33N 37°56' E 023°38'0 0.3
2014-Jul-26 13:33N 37°57' E 023°38'0 0.0
2014-Jul-26 12:33N 37°57' E 023°38'2 2.1
2014-Jul-26 11:33N 37°57' E 023°36'1 0.7
2014-Jul-26 10:33N 37°57' E 023°37'0 0.0
2014-Jul-26 09:33N 37°57' E 023°37'0 0.0
2014-Jul-26 08:34N 37°57' E 023°37'0 0.0
2014-Jul-26 07:33N 37°57' E 023°37'0 0.0
2014-Jul-26 06:33N 37°57' E 023°37'0 0.0
2014-Jul-26 05:33N 37°57' E 023°37'0 0.0
2014-Jul-26 04:33N 37°57' E 023°37'1 1.4
2014-Jul-26 03:33N 37°56' E 023°38'1 1.4
2014-Jul-26 02:33N 37°57' E 023°37'0 0.0
2014-Jul-26 01:33N 37°57' E 023°37'0 0.0
2014-Jul-26 00:34N 37°57' E 023°37'0 0.0
2014-Jul-25 23:33N 37°57' E 023°37'0 0.0
2014-Jul-25 22:33N 37°57' E 023°37'1 0.5
2014-Jul-25 21:33N 37°57' E 023°36'0 0.2
2014-Jul-25 20:32N 37°57' E 023°36'1 0.9
2014-Jul-25 19:33N 37°57' E 023°35'1 1.2
2014-Jul-25 18:33N 37°57' E 023°37'0 0.0
2014-Jul-25 17:33N 37°57' E 023°37'0 0.0
2014-Jul-25 16:33N 37°57' E 023°37'0 0.0
2014-Jul-25 15:33N 37°57' E 023°37'0 0.0
2014-Jul-25 14:33N 37°57' E 023°37'0 0.0
2014-Jul-25 13:33N 37°57' E 023°37'0 0.4
2014-Jul-25 12:33N 37°57' E 023°36'0 0.4
2014-Jul-25 11:33N 37°57' E 023°37'0 0.0
2014-Jul-25 05:32N 37°57' E 023°37'1 0.1
2014-Jul-24 20:33N 37°57' E 023°36'1 1.1
2014-Jul-24 19:33N 37°56' E 023°36'1 1.5
2014-Jul-24 18:33N 37°57' E 023°37'2 2.3
2014-Jul-24 17:33N 37°57' E 023°34'0 0.2
2014-Jul-24 16:33N 37°58' E 023°34'0 0.0
2014-Jul-24 15:33N 37°58' E 023°34'2 1.8
2014-Jul-24 14:33N 37°57' E 023°36'1 0.6
2014-Jul-24 13:33N 37°57' E 023°37'0 0.0
2014-Jul-24 12:33N 37°57' E 023°37'1 1.1
2014-Jul-24 11:33N 37°57' E 023°35'1 0.8
2014-Jul-24 10:15N 37°57' E 023°37'0 0.2
2014-Jul-24 09:33N 37°57' E 023°36'0 0.3
2014-Jul-24 08:33N 37°57' E 023°36'0 0.0
2014-Jul-24 04:03N 37°57' E 023°36'2 3.8
2014-Jul-24 03:34N 37°56' E 023°38'0 0.5
2014-Jul-24 02:34N 37°56' E 023°38'0 0.1
2014-Jul-24 01:33N 37°56' E 023°37'2 2.0
2014-Jul-24 00:33N 37°57' E 023°35'1 1.2
2014-Jul-23 23:33N 37°57' E 023°37'0 0.0
2014-Jul-23 22:34N 37°57' E 023°37'0 0.0
2014-Jul-23 21:33N 37°57' E 023°37'0 0.0
2014-Jul-23 20:33N 37°57' E 023°37'0 0.0
2014-Jul-23 19:33N 37°57' E 023°37'0 0.0
2014-Jul-23 18:33N 37°57' E 023°37'0 0.0
2014-Jul-23 17:33N 37°57' E 023°37'0 0.0
2014-Jul-23 16:33N 37°57' E 023°37'1 0.5
2014-Jul-23 15:33N 37°57' E 023°36'2 2.0
2014-Jul-23 14:33N 37°56' E 023°38'0 0.1
2014-Jul-23 13:33N 37°56' E 023°38'2 1.7
2014-Jul-23 12:33N 37°57' E 023°37'0 0.0
2014-Jul-23 11:33N 37°57' E 023°37'0 0.0
2014-Jul-23 06:03N 37°57' E 023°37'0 0.0
2014-Jul-23 05:33N 37°57' E 023°37'2 0.4
2014-Jul-23 01:09N 37°56' E 023°36'2 2.7
2014-Jul-23 00:33N 37°57' E 023°36'0 0.5
2014-Jul-22 23:33N 37°57' E 023°37'0 0.0
2014-Jul-22 22:33N 37°57' E 023°37'0 0.0
2014-Jul-22 21:33N 37°57' E 023°37'1 0.7
2014-Jul-22 20:33N 37°57' E 023°36'0 0.5
2014-Jul-22 19:33N 37°57' E 023°35'1 1.2
2014-Jul-22 18:33N 37°57' E 023°37'0 0.0
2014-Jul-22 17:33N 37°57' E 023°37'0 0.2
2014-Jul-22 16:33N 37°57' E 023°36'2 2.2
2014-Jul-22 15:33N 37°57' E 023°34'4 4.0
2014-Jul-22 14:33N 37°57' E 023°38'0 0.0
2014-Jul-22 13:33N 37°57' E 023°38'2 2.1
2014-Jul-22 12:33N 37°57' E 023°36'1 0.8
2014-Jul-22 11:33N 37°57' E 023°37'0 0.0
2014-Jul-22 10:33N 37°57' E 023°37'0 0.0
2014-Jul-22 03:09N 37°57' E 023°36'1 2.5
2014-Jul-22 02:33N 37°56' E 023°38'0 0.3
2014-Jul-22 01:33N 37°56' E 023°37'0 0.1
2014-Jul-22 00:33N 37°56' E 023°37'0 0.0
2014-Jul-21 23:33N 37°56' E 023°37'0 0.4
2014-Jul-21 22:33N 37°56' E 023°37'2 1.8
2014-Jul-21 21:33N 37°56' E 023°35'1 0.7
2014-Jul-21 20:33N 37°57' E 023°35'0 1.1
2014-Jul-21 20:18N 37°57' E 023°35'1 1.4
2014-Jul-21 19:33N 37°57' E 023°36'0 0.1
2014-Jul-21 18:33N 37°57' E 023°37'0 0.0
2014-Jul-21 17:34N 37°57' E 023°37'0 0.0
2014-Jul-21 16:33N 37°57' E 023°37'1 0.6
2014-Jul-21 15:33N 37°57' E 023°36'1 1.5
2014-Jul-21 14:33N 37°56' E 023°37'1 1.4
2014-Jul-21 13:34N 37°57' E 023°37'0 0.0
2014-Jul-21 12:33N 37°57' E 023°37'0 0.0
2014-Jul-21 11:33N 37°57' E 023°37'0 0.0
2014-Jul-21 07:34N 37°57' E 023°37'3 2.6
2014-Jul-21 06:33N 37°57' E 023°33'2 0.4
2014-Jul-21 02:30N 37°57' E 023°35'0 0.3
2014-Jul-21 01:14N 37°57' E 023°35'1 0.1
2014-Jul-20 16:13N 37°57' E 023°36'  
Track history (hours):
 
Tides and Currents Weather Stations Pressure Air Temp Water Temp Dewpoint Dewpoint Depression Visibility Wind Speed Wind Dir Waves Ship Positions

Armadores I

Last reported at 2014-Jul-30 03:25 UTC. Time now 2014-Jul-30 07:06 UTC.
Position N 37°57' E 023°37'.

Length 32 m.

Type: Tug. MMSI: 240694000.

Date/timePositionNaut miles runAvg speedWind from/ knotsBaromVisibWave heightAir tempDewpointWater temp
2014-Jul-30 03:25N 37°57' E 023°37'0 0.0
2014-Jul-30 02:33N 37°57' E 023°37'0 0.0
2014-Jul-30 01:30N 37°57' E 023°37'0 0.0
2014-Jul-30 00:31N 37°57' E 023°37'0 0.0
2014-Jul-29 23:26N 37°57' E 023°37'0 0.0
2014-Jul-29 22:34N 37°57' E 023°37'1 0.8
2014-Jul-29 21:34N 37°57' E 023°36'1 0.7
2014-Jul-29 20:33N 37°57' E 023°37'0 0.0
2014-Jul-29 19:33N 37°57' E 023°37'0 0.0
2014-Jul-29 18:33N 37°57' E 023°37'2 1.6
2014-Jul-29 17:33N 37°56' E 023°36'1 1.0
2014-Jul-29 16:33N 37°56' E 023°37'1 1.4
2014-Jul-29 15:34N 37°57' E 023°37'0 0.0
2014-Jul-29 14:34N 37°57' E 023°37'1 1.0
2014-Jul-29 13:33N 37°57' E 023°36'1 1.0
2014-Jul-29 12:34N 37°57' E 023°37'0 0.0
2014-Jul-29 11:34N 37°57' E 023°37'0 0.0
2014-Jul-29 04:10N 37°57' E 023°37'0 0.0
2014-Jul-29 03:33N 37°57' E 023°37'0 0.0
2014-Jul-29 02:33N 37°57' E 023°37'0 0.0
2014-Jul-29 01:33N 37°57' E 023°37'0 0.0
2014-Jul-29 00:33N 37°57' E 023°37'0 0.0
2014-Jul-28 23:33N 37°57' E 023°37'0 0.0
2014-Jul-28 22:33N 37°57' E 023°37'0 0.0
2014-Jul-28 21:33N 37°57' E 023°37'0 0.1
2014-Jul-28 20:34N 37°57' E 023°36'2 1.7
2014-Jul-28 19:34N 37°56' E 023°36'1 1.2
2014-Jul-28 18:34N 37°57' E 023°35'1 1.0
2014-Jul-28 17:33N 37°57' E 023°37'0 0.0
2014-Jul-28 16:33N 37°57' E 023°37'0 0.0
2014-Jul-28 15:33N 37°57' E 023°37'1 1.3
2014-Jul-28 14:33N 37°56' E 023°37'1 1.4
2014-Jul-28 13:34N 37°57' E 023°37'0 0.0
2014-Jul-28 12:33N 37°57' E 023°37'0 0.0
2014-Jul-28 11:33N 37°57' E 023°37'0 0.0
2014-Jul-28 10:33N 37°57' E 023°37'0 0.0
2014-Jul-28 08:12N 37°57' E 023°37'3 5.2
2014-Jul-28 07:33N 37°59' E 023°33'6 5.5
2014-Jul-28 06:32N 37°58' E 023°26'1 1.5
2014-Jul-28 05:33N 37°60' E 023°26'8 7.8
2014-Jul-28 04:33N 37°57' E 023°35'1 1.1
2014-Jul-28 03:33N 37°57' E 023°37'0 0.2
2014-Jul-28 02:33N 37°57' E 023°36'1 1.4
2014-Jul-28 01:33N 37°56' E 023°37'1 1.3
2014-Jul-28 00:33N 37°57' E 023°36'0 0.0
2014-Jul-27 23:34N 37°57' E 023°36'0 0.0
2014-Jul-27 22:34N 37°57' E 023°36'0 0.0
2014-Jul-27 21:33N 37°57' E 023°36'0 0.0
2014-Jul-27 20:33N 37°57' E 023°36'0 0.0
2014-Jul-27 19:33N 37°57' E 023°36'1 0.7
2014-Jul-27 18:33N 37°57' E 023°37'0 0.0
2014-Jul-27 17:34N 37°57' E 023°37'0 0.0
2014-Jul-27 16:33N 37°57' E 023°37'1 0.9
2014-Jul-27 15:33N 37°57' E 023°36'1 0.9
2014-Jul-27 14:33N 37°57' E 023°37'0 0.1
2014-Jul-27 13:33N 37°57' E 023°37'3 3.1
2014-Jul-27 12:32N 37°58' E 023°33'3 3.0
2014-Jul-27 11:26N 38°01' E 023°31'1 0.1
2014-Jul-27 07:21N 38°01' E 023°30'6 6.3
2014-Jul-27 06:26N 37°57' E 023°24'1 1.6
2014-Jul-27 05:33N 37°57' E 023°23'6 5.1
2014-Jul-27 04:19N 37°52' E 023°27'7 9.0
2014-Jul-27 03:33N 37°56' E 023°35'2 0.7
2014-Jul-27 00:33N 37°57' E 023°37'0 0.0
2014-Jul-26 23:33N 37°57' E 023°37'0 0.0
2014-Jul-26 22:33N 37°57' E 023°37'0 0.0
2014-Jul-26 21:33N 37°57' E 023°37'1 0.7
2014-Jul-26 20:34N 37°57' E 023°36'1 0.9
2014-Jul-26 19:33N 37°56' E 023°36'1 1.3
2014-Jul-26 18:33N 37°57' E 023°37'0 0.0
2014-Jul-26 17:33N 37°57' E 023°37'0 0.0
2014-Jul-26 16:34N 37°57' E 023°37'0 0.1
2014-Jul-26 15:34N 37°58' E 023°37'2 1.7
2014-Jul-26 14:33N 37°56' E 023°38'0 0.3
2014-Jul-26 13:33N 37°57' E 023°38'0 0.0
2014-Jul-26 12:33N 37°57' E 023°38'2 2.1
2014-Jul-26 11:33N 37°57' E 023°36'1 0.7
2014-Jul-26 10:33N 37°57' E 023°37'0 0.0
2014-Jul-26 09:33N 37°57' E 023°37'0 0.0
2014-Jul-26 08:34N 37°57' E 023°37'0 0.0
2014-Jul-26 07:33N 37°57' E 023°37'0 0.0
2014-Jul-26 06:33N 37°57' E 023°37'0 0.0
2014-Jul-26 05:33N 37°57' E 023°37'0 0.0
2014-Jul-26 04:33N 37°57' E 023°37'1 1.4
2014-Jul-26 03:33N 37°56' E 023°38'1 1.4
2014-Jul-26 02:33N 37°57' E 023°37'0 0.0
2014-Jul-26 01:33N 37°57' E 023°37'0 0.0
2014-Jul-26 00:34N 37°57' E 023°37'0 0.0
2014-Jul-25 23:33N 37°57' E 023°37'0 0.0
2014-Jul-25 22:33N 37°57' E 023°37'1 0.5
2014-Jul-25 21:33N 37°57' E 023°36'0 0.2
2014-Jul-25 20:32N 37°57' E 023°36'1 0.9
2014-Jul-25 19:33N 37°57' E 023°35'1 1.2
2014-Jul-25 18:33N 37°57' E 023°37'0 0.0
2014-Jul-25 17:33N 37°57' E 023°37'0 0.0
2014-Jul-25 16:33N 37°57' E 023°37'0 0.0
2014-Jul-25 15:33N 37°57' E 023°37'0 0.0
2014-Jul-25 14:33N 37°57' E 023°37'0 0.0
2014-Jul-25 13:33N 37°57' E 023°37'0 0.4
2014-Jul-25 12:33N 37°57' E 023°36'0 0.4
2014-Jul-25 11:33N 37°57' E 023°37'0 0.0
2014-Jul-25 05:32N 37°57' E 023°37'1 0.1
2014-Jul-24 20:33N 37°57' E 023°36'1 1.1
2014-Jul-24 19:33N 37°56' E 023°36'1 1.5
2014-Jul-24 18:33N 37°57' E 023°37'2 2.3
2014-Jul-24 17:33N 37°57' E 023°34'0 0.2
2014-Jul-24 16:33N 37°58' E 023°34'0 0.0
2014-Jul-24 15:33N 37°58' E 023°34'2 1.8
2014-Jul-24 14:33N 37°57' E 023°36'1 0.6
2014-Jul-24 13:33N 37°57' E 023°37'0 0.0
2014-Jul-24 12:33N 37°57' E 023°37'1 1.1
2014-Jul-24 11:33N 37°57' E 023°35'1 0.8
2014-Jul-24 10:15N 37°57' E 023°37'0 0.2
2014-Jul-24 09:33N 37°57' E 023°36'0 0.3
2014-Jul-24 08:33N 37°57' E 023°36'0 0.0
2014-Jul-24 04:03N 37°57' E 023°36'2 3.8
2014-Jul-24 03:34N 37°56' E 023°38'0 0.5
2014-Jul-24 02:34N 37°56' E 023°38'0 0.1
2014-Jul-24 01:33N 37°56' E 023°37'2 2.0
2014-Jul-24 00:33N 37°57' E 023°35'1 1.2
2014-Jul-23 23:33N 37°57' E 023°37'0 0.0
2014-Jul-23 22:34N 37°57' E 023°37'0 0.0
2014-Jul-23 21:33N 37°57' E 023°37'0 0.0
2014-Jul-23 20:33N 37°57' E 023°37'0 0.0
2014-Jul-23 19:33N 37°57' E 023°37'0 0.0
2014-Jul-23 18:33N 37°57' E 023°37'0 0.0
2014-Jul-23 17:33N 37°57' E 023°37'0 0.0
2014-Jul-23 16:33N 37°57' E 023°37'1 0.5
2014-Jul-23 15:33N 37°57' E 023°36'2 2.0
2014-Jul-23 14:33N 37°56' E 023°38'0 0.1
2014-Jul-23 13:33N 37°56' E 023°38'2 1.7
2014-Jul-23 12:33N 37°57' E 023°37'0 0.0
2014-Jul-23 11:33N 37°57' E 023°37'0 0.0
2014-Jul-23 06:03N 37°57' E 023°37'0 0.0
2014-Jul-23 05:33N 37°57' E 023°37'2 0.4
2014-Jul-23 01:09N 37°56' E 023°36'2 2.7
2014-Jul-23 00:33N 37°57' E 023°36'0 0.5
2014-Jul-22 23:33N 37°57' E 023°37'0 0.0
2014-Jul-22 22:33N 37°57' E 023°37'0 0.0
2014-Jul-22 21:33N 37°57' E 023°37'1 0.7
2014-Jul-22 20:33N 37°57' E 023°36'0 0.5
2014-Jul-22 19:33N 37°57' E 023°35'1 1.2
2014-Jul-22 18:33N 37°57' E 023°37'0 0.0
2014-Jul-22 17:33N 37°57' E 023°37'0 0.2
2014-Jul-22 16:33N 37°57' E 023°36'2 2.2
2014-Jul-22 15:33N 37°57' E 023°34'4 4.0
2014-Jul-22 14:33N 37°57' E 023°38'0 0.0
2014-Jul-22 13:33N 37°57' E 023°38'2 2.1
2014-Jul-22 12:33N 37°57' E 023°36'1 0.8
2014-Jul-22 11:33N 37°57' E 023°37'0 0.0
2014-Jul-22 10:33N 37°57' E 023°37'0 0.0
2014-Jul-22 03:09N 37°57' E 023°36'1 2.5
2014-Jul-22 02:33N 37°56' E 023°38'0 0.3
2014-Jul-22 01:33N 37°56' E 023°37'0 0.1
2014-Jul-22 00:33N 37°56' E 023°37'0 0.0
2014-Jul-21 23:33N 37°56' E 023°37'0 0.4
2014-Jul-21 22:33N 37°56' E 023°37'2 1.8
2014-Jul-21 21:33N 37°56' E 023°35'1 0.7
2014-Jul-21 20:33N 37°57' E 023°35'0 1.1
2014-Jul-21 20:18N 37°57' E 023°35'1 1.4
2014-Jul-21 19:33N 37°57' E 023°36'0 0.1
2014-Jul-21 18:33N 37°57' E 023°37'0 0.0
2014-Jul-21 17:34N 37°57' E 023°37'0 0.0
2014-Jul-21 16:33N 37°57' E 023°37'1 0.6
2014-Jul-21 15:33N 37°57' E 023°36'1 1.5
2014-Jul-21 14:33N 37°56' E 023°37'1 1.4
2014-Jul-21 13:34N 37°57' E 023°37'0 0.0
2014-Jul-21 12:33N 37°57' E 023°37'0 0.0
2014-Jul-21 11:33N 37°57' E 023°37'0 0.0
2014-Jul-21 07:34N 37°57' E 023°37'3 2.6
2014-Jul-21 06:33N 37°57' E 023°33'2 0.4
2014-Jul-21 02:30N 37°57' E 023°35'0 0.3
2014-Jul-21 01:14N 37°57' E 023°35'1 0.1
2014-Jul-20 16:13N 37°57' E 023°36'  

Dump ship's entire track history